createdAt,value
2023-03-11T00:02:22.617Z,1.20
2023-03-11T00:04:49.579Z,1.10
2023-03-11T00:07:16.553Z,1.20
2023-03-11T00:09:43.444Z,1.10
2023-03-11T00:12:10.388Z,1.10
2023-03-11T00:14:37.283Z,1.10
2023-03-11T00:17:04.182Z,1.10
2023-03-11T00:19:31.122Z,1.10
2023-03-11T00:21:58.082Z,1.10
2023-03-11T00:24:25.001Z,1.10
2023-03-11T00:26:51.927Z,1.10
2023-03-11T00:29:18.833Z,1.10
2023-03-11T00:31:45.755Z,1.10
2023-03-11T00:34:12.628Z,1.10
2023-03-11T00:36:39.547Z,1.10
2023-03-11T00:39:06.759Z,1.10
2023-03-11T00:41:34.286Z,1.10
2023-03-11T00:44:01.229Z,1.10
2023-03-11T00:46:31.313Z,1.10
2023-03-11T00:48:58.487Z,1.10
2023-03-11T00:51:28.204Z,1.10
2023-03-11T00:53:55.192Z,1.10
2023-03-11T00:56:22.174Z,1.10
2023-03-11T00:58:49.179Z,1.10
2023-03-11T01:01:17.861Z,1.00
2023-03-11T01:03:45.273Z,1.00
2023-03-11T01:06:12.516Z,1.00
2023-03-11T01:08:39.920Z,1.00
2023-03-11T01:11:07.308Z,1.00
2023-03-11T01:13:34.639Z,1.00
2023-03-11T01:16:02.000Z,1.00
2023-03-11T01:18:29.384Z,1.00
2023-03-11T01:20:56.453Z,1.00
2023-03-11T01:23:23.475Z,1.00
2023-03-11T01:25:50.409Z,1.00
2023-03-11T01:28:17.612Z,1.00
2023-03-11T01:30:45.081Z,1.00
2023-03-11T01:33:14.837Z,1.00
2023-03-11T01:35:42.394Z,1.00
2023-03-11T01:38:09.795Z,1.00
2023-03-11T01:40:38.193Z,1.00
2023-03-11T01:43:27.550Z,0.90
2023-03-11T01:45:57.238Z,0.90
2023-03-11T01:48:26.590Z,0.90
2023-03-11T01:50:53.562Z,0.90
2023-03-11T01:53:21.953Z,0.90
2023-03-11T01:55:49.503Z,0.90
2023-03-11T01:58:19.016Z,0.90
2023-03-11T02:00:46.778Z,0.90
2023-03-11T02:03:24.446Z,0.90
2023-03-11T02:05:52.821Z,0.90
2023-03-11T02:08:19.747Z,0.80
2023-03-11T02:10:46.980Z,0.90
2023-03-11T02:13:14.344Z,0.80
2023-03-11T02:15:41.445Z,0.80
2023-03-11T02:18:08.910Z,0.80
2023-03-11T02:20:42.761Z,0.80
2023-03-11T02:23:13.825Z,0.80
2023-03-11T02:25:59.255Z,0.80
2023-03-11T02:28:27.860Z,0.80
2023-03-11T02:30:55.742Z,0.80
2023-03-11T02:33:24.835Z,0.70
2023-03-11T02:35:51.862Z,0.70
2023-03-11T02:38:19.041Z,0.70
2023-03-11T02:40:51.893Z,0.70
2023-03-11T02:43:28.018Z,0.70
2023-03-11T02:45:56.030Z,0.70
2023-03-11T02:48:24.020Z,0.70
2023-03-11T02:50:51.284Z,0.60
2023-03-11T02:53:19.682Z,0.70
2023-03-11T02:55:47.216Z,0.60
2023-03-11T02:58:14.215Z,0.70
2023-03-11T03:00:41.571Z,0.70
2023-03-11T03:03:08.950Z,0.70
2023-03-11T03:05:36.809Z,0.60
2023-03-11T03:08:03.859Z,0.60
2023-03-11T03:10:30.785Z,0.60
2023-03-11T03:12:58.284Z,0.60
2023-03-11T03:15:25.905Z,0.60
2023-03-11T03:17:52.848Z,0.60
2023-03-11T03:20:22.689Z,0.60
2023-03-11T03:22:53.506Z,0.60
2023-03-11T03:25:24.645Z,0.60
2023-03-11T03:27:52.266Z,0.60
2023-03-11T03:30:20.009Z,0.60
2023-03-11T03:32:47.948Z,0.50
2023-03-11T03:35:16.767Z,0.50
2023-03-11T03:38:01.946Z,0.60
2023-03-11T03:40:28.998Z,0.50
2023-03-11T03:42:58.138Z,0.50
2023-03-11T03:45:25.084Z,0.50
2023-03-11T03:47:53.348Z,0.50
2023-03-11T03:50:22.354Z,0.50
2023-03-11T03:52:53.656Z,0.50
2023-03-11T03:55:22.248Z,0.50
2023-03-11T03:57:49.287Z,0.50
2023-03-11T04:00:18.666Z,0.50
2023-03-11T04:02:50.400Z,0.50
2023-03-11T04:05:26.924Z,0.50
2023-03-11T04:07:55.101Z,0.50
2023-03-11T04:10:22.581Z,0.50
2023-03-11T04:12:50.179Z,0.50
2023-03-11T04:15:17.356Z,0.50
2023-03-11T04:17:44.831Z,0.50
2023-03-11T04:20:12.771Z,0.50
2023-03-11T04:22:41.045Z,0.50
2023-03-11T04:25:08.391Z,0.50
2023-03-11T04:27:35.348Z,0.50
2023-03-11T04:30:05.374Z,0.50
2023-03-11T04:32:32.854Z,0.50
2023-03-11T04:35:00.258Z,0.50
2023-03-11T04:37:29.068Z,0.50
2023-03-11T04:39:56.979Z,0.50
2023-03-11T04:42:24.533Z,0.50
2023-03-11T04:44:52.026Z,0.50
2023-03-11T04:47:19.238Z,0.50
2023-03-11T04:49:46.326Z,0.50
2023-03-11T04:52:13.382Z,0.60
2023-03-11T04:54:40.331Z,0.50
2023-03-11T04:57:07.532Z,0.60
2023-03-11T04:59:35.594Z,0.50
2023-03-11T05:02:05.772Z,0.60
2023-03-11T05:04:33.210Z,0.50
2023-03-11T05:07:00.881Z,0.60
2023-03-11T05:09:27.782Z,0.50
2023-03-11T05:11:54.980Z,0.60
2023-03-11T05:14:22.225Z,0.60
2023-03-11T05:16:50.607Z,0.60
2023-03-11T05:19:31.229Z,0.60
2023-03-11T05:22:01.531Z,0.60
2023-03-11T05:24:29.184Z,0.60
2023-03-11T05:26:56.464Z,0.60
2023-03-11T05:29:24.109Z,0.70
2023-03-11T05:31:50.960Z,0.60
2023-03-11T05:34:18.244Z,0.60
2023-03-11T05:36:45.525Z,0.60
2023-03-11T05:39:13.174Z,0.60
2023-03-11T05:41:40.332Z,0.70
2023-03-11T05:44:07.286Z,0.70
2023-03-11T05:46:34.380Z,0.70
2023-03-11T05:49:02.308Z,0.70
2023-03-11T05:51:29.540Z,0.70
2023-03-11T05:53:56.565Z,0.70
2023-03-11T05:56:32.949Z,0.80
2023-03-11T05:59:00.200Z,0.70
2023-03-11T06:01:30.751Z,0.80
2023-03-11T06:03:58.125Z,0.80
2023-03-11T06:06:25.192Z,0.80
2023-03-11T06:08:52.427Z,0.80
2023-03-11T06:11:23.953Z,0.80
2023-03-11T06:13:52.668Z,0.80
2023-03-11T06:16:19.951Z,0.80
2023-03-11T06:18:46.864Z,0.90
2023-03-11T06:21:21.651Z,0.80
2023-03-11T06:23:48.866Z,0.80
2023-03-11T06:26:17.129Z,0.80
2023-03-11T06:28:46.564Z,0.80
2023-03-11T06:31:32.208Z,0.80
2023-03-11T06:34:06.367Z,0.70
2023-03-11T06:36:34.169Z,0.70
2023-03-11T06:39:01.093Z,0.70
2023-03-11T06:41:29.005Z,0.70
2023-03-11T06:43:59.730Z,0.70
2023-03-11T06:46:28.059Z,0.70
2023-03-11T06:48:57.386Z,0.70
2023-03-11T06:51:24.809Z,0.60
2023-03-11T06:53:53.048Z,0.60
2023-03-11T06:56:22.017Z,0.60
2023-03-11T06:58:54.029Z,0.60
2023-03-11T07:01:23.644Z,0.70
2023-03-11T07:03:51.930Z,0.60
2023-03-11T07:06:21.680Z,0.70
2023-03-11T07:08:50.305Z,0.70
2023-03-11T07:11:19.074Z,0.60
2023-03-11T07:13:46.481Z,0.60
2023-03-11T07:16:15.720Z,0.60
2023-03-11T07:18:44.534Z,0.60
2023-03-11T07:21:14.227Z,0.70
2023-03-11T07:23:41.605Z,0.60
2023-03-11T07:26:10.348Z,0.60
2023-03-11T07:28:37.431Z,0.70
2023-03-11T07:31:24.386Z,0.70
2023-03-11T07:33:51.546Z,0.70
2023-03-11T07:36:20.006Z,0.70
2023-03-11T07:38:47.057Z,0.80
2023-03-11T07:41:14.435Z,0.80
2023-03-11T07:43:41.987Z,0.80
2023-03-11T07:46:10.938Z,0.80
2023-03-11T07:48:38.477Z,0.90
2023-03-11T07:51:07.140Z,0.90
2023-03-11T07:53:34.243Z,0.90
2023-03-11T07:56:01.442Z,0.90
2023-03-11T07:58:28.651Z,1.00
2023-03-11T08:00:56.976Z,1.00
2023-03-11T08:03:24.818Z,1.00
2023-03-11T08:05:51.816Z,1.00
2023-03-11T08:08:18.664Z,1.00
2023-03-11T08:10:45.694Z,1.00
2023-03-11T08:13:12.770Z,1.00
2023-03-11T08:15:39.637Z,1.10
2023-03-11T08:18:06.579Z,1.10
2023-03-11T08:20:33.516Z,1.10
2023-03-11T08:23:00.369Z,1.20
2023-03-11T08:25:27.361Z,1.20
2023-03-11T08:27:54.256Z,1.20
2023-03-11T08:30:21.236Z,1.20
2023-03-11T08:32:49.363Z,1.20
2023-03-11T08:35:16.743Z,1.30
2023-03-11T08:37:43.665Z,1.30
2023-03-11T08:40:11.004Z,1.30
2023-03-11T08:42:37.884Z,1.30
2023-03-11T08:45:05.050Z,1.40
2023-03-11T08:47:34.403Z,1.40
2023-03-11T08:50:01.322Z,1.40
2023-03-11T08:52:28.268Z,1.50
2023-03-11T08:54:55.151Z,1.50
2023-03-11T08:57:22.112Z,1.60
2023-03-11T08:59:49.017Z,1.70
2023-03-11T09:02:15.998Z,1.70
2023-03-11T09:04:42.930Z,1.90
2023-03-11T09:07:11.344Z,2.00
2023-03-11T09:09:38.191Z,2.10
2023-03-11T09:12:05.099Z,2.30
2023-03-11T09:14:32.004Z,2.50
2023-03-11T09:16:58.971Z,2.80
2023-03-11T09:19:26.223Z,2.90
2023-03-11T09:21:53.200Z,3.10
2023-03-11T09:24:20.214Z,3.40
2023-03-11T09:26:47.084Z,3.70
2023-03-11T09:29:13.933Z,4.10
2023-03-11T09:31:40.899Z,4.40
2023-03-11T09:34:07.833Z,4.70
2023-03-11T09:36:34.680Z,4.90
2023-03-11T09:39:04.560Z,5.20
2023-03-11T09:41:55.266Z,5.40
2023-03-11T09:44:34.337Z,5.60
2023-03-11T09:47:20.001Z,5.90
2023-03-11T09:49:50.044Z,6.20
2023-03-11T09:52:20.384Z,6.50
2023-03-11T09:54:50.509Z,6.70
2023-03-11T09:57:28.418Z,6.90
2023-03-11T09:59:56.004Z,7.10
2023-03-11T10:05:06.830Z,7.50
2023-03-11T10:07:36.801Z,7.60
2023-03-11T10:10:04.017Z,7.80
2023-03-11T10:12:33.900Z,7.90
2023-03-11T10:15:05.149Z,8.10
2023-03-11T10:17:35.037Z,8.30
2023-03-11T10:20:05.146Z,8.60
2023-03-11T10:22:32.078Z,8.80
2023-03-11T10:27:40.397Z,9.20
2023-03-11T10:30:24.746Z,9.30
2023-03-11T10:33:10.883Z,9.50
2023-03-11T10:35:42.201Z,9.60
2023-03-11T10:38:15.273Z,9.70
2023-03-11T10:40:43.591Z,9.90
2023-03-11T10:43:13.201Z,10.20
2023-03-11T10:45:41.717Z,10.20
2023-03-11T10:48:12.616Z,10.30
2023-03-11T10:50:46.405Z,10.30
2023-03-11T10:53:15.697Z,10.30
2023-03-11T10:55:50.010Z,10.20
2023-03-11T10:58:22.164Z,10.20
2023-03-11T11:01:04.351Z,10.40
2023-03-11T11:03:32.207Z,10.50
2023-03-11T11:06:03.762Z,10.70
2023-03-11T11:08:31.486Z,10.90
2023-03-11T11:11:00.185Z,11.20
2023-03-11T11:13:30.233Z,11.30
2023-03-11T11:16:17.679Z,11.50
2023-03-11T11:18:49.220Z,11.70
2023-03-11T11:21:27.609Z,11.80
2023-03-11T11:24:12.637Z,11.80
2023-03-11T11:26:39.533Z,11.70
2023-03-11T11:29:15.626Z,11.40
2023-03-11T11:31:43.766Z,11.30
2023-03-11T11:34:33.490Z,11.10
2023-03-11T11:37:04.701Z,11.00
2023-03-11T11:39:44.436Z,11.00
2023-03-11T11:42:12.454Z,11.10
2023-03-11T11:44:40.134Z,11.00
2023-03-11T11:47:12.846Z,11.00
2023-03-11T11:49:44.101Z,11.10
2023-03-11T11:52:16.472Z,10.80
2023-03-11T11:54:46.371Z,10.70
2023-03-11T11:57:17.958Z,10.50
2023-03-11T11:59:44.916Z,10.40
2023-03-11T12:02:31.849Z,10.20
2023-03-11T12:05:04.884Z,10.20
2023-03-11T12:07:50.681Z,10.20
2023-03-11T12:10:29.796Z,10.20
2023-03-11T12:13:15.673Z,10.20
2023-03-11T12:15:47.191Z,10.20
2023-03-11T12:18:18.688Z,10.10
2023-03-11T12:20:48.726Z,10.00
2023-03-11T12:23:20.032Z,10.00
2023-03-11T12:25:57.153Z,10.00
2023-03-11T12:28:29.185Z,10.00
2023-03-11T12:31:02.292Z,9.90
2023-03-11T12:33:40.329Z,9.80
2023-03-11T12:36:10.377Z,9.70
2023-03-11T12:38:38.977Z,9.60
2023-03-11T12:41:26.391Z,9.60
2023-03-11T12:43:53.288Z,9.60
2023-03-11T12:46:20.416Z,9.50
2023-03-11T12:49:06.825Z,9.50
2023-03-11T12:51:34.325Z,9.40
2023-03-11T12:54:19.926Z,9.40
2023-03-11T12:56:53.467Z,9.30
2023-03-11T12:59:20.422Z,9.10
2023-03-11T13:02:06.184Z,9.00
2023-03-11T13:04:39.955Z,8.80
2023-03-11T13:07:22.147Z,8.70
2023-03-11T13:10:07.284Z,8.60
2023-03-11T13:12:37.355Z,8.50
2023-03-11T13:15:16.491Z,8.20
2023-03-11T13:17:55.711Z,8.10
2023-03-11T13:20:44.451Z,8.00
2023-03-11T13:23:14.415Z,7.90
2023-03-11T13:25:41.334Z,7.80
2023-03-11T13:28:14.201Z,7.70
2023-03-11T13:30:46.581Z,7.70
2023-03-11T13:33:19.468Z,7.60
2023-03-11T13:36:13.074Z,7.60
2023-03-11T13:38:43.052Z,7.50
2023-03-11T13:41:30.113Z,7.30
2023-03-11T13:44:01.473Z,7.30
2023-03-11T13:46:38.431Z,7.20
2023-03-11T13:49:07.546Z,7.20
2023-03-11T13:51:42.704Z,7.20
2023-03-11T13:54:20.231Z,7.20
2023-03-11T13:56:49.364Z,7.10
2023-03-11T13:59:27.394Z,7.10
2023-03-11T14:01:55.999Z,7.10
2023-03-11T14:04:27.579Z,7.00
2023-03-11T14:06:54.552Z,7.00
2023-03-11T14:09:22.390Z,7.00
2023-03-11T14:11:49.835Z,7.00
2023-03-11T14:14:27.592Z,7.00
2023-03-11T14:16:54.665Z,7.10
2023-03-11T14:19:21.800Z,7.10
2023-03-11T14:21:51.382Z,7.10
2023-03-11T14:24:18.376Z,7.10
2023-03-11T14:26:45.368Z,7.10
2023-03-11T14:29:15.801Z,7.00
2023-03-11T14:31:44.186Z,7.00
2023-03-11T14:34:14.528Z,6.90
2023-03-11T14:36:43.482Z,6.80
2023-03-11T14:39:28.817Z,6.80
2023-03-11T14:42:06.444Z,6.70
2023-03-11T14:44:35.954Z,6.70
2023-03-11T14:47:17.630Z,6.60
2023-03-11T14:49:44.954Z,6.70
2023-03-11T14:52:16.381Z,6.60
2023-03-11T14:54:43.840Z,6.70
2023-03-11T14:57:15.939Z,6.70
2023-03-11T14:59:43.725Z,6.70
2023-03-11T15:02:28.086Z,6.70
2023-03-11T15:04:56.803Z,6.70
2023-03-11T15:07:24.640Z,6.60
2023-03-11T15:09:51.541Z,6.60
2023-03-11T15:12:32.271Z,6.60
2023-03-11T15:14:59.186Z,6.50
2023-03-11T15:17:42.876Z,6.50
2023-03-11T15:20:43.704Z,6.40
2023-03-11T15:23:19.794Z,6.30
2023-03-11T15:25:48.713Z,6.30
2023-03-11T15:28:27.594Z,6.30
2023-03-11T15:31:32.358Z,6.30
2023-03-11T15:34:20.830Z,6.30
2023-03-11T15:36:47.628Z,6.20
2023-03-11T15:39:20.646Z,6.10
2023-03-11T15:42:01.107Z,6.10
2023-03-11T15:44:29.790Z,6.10
2023-03-11T15:46:59.321Z,6.00
2023-03-11T15:49:27.003Z,5.90
2023-03-11T15:51:57.676Z,5.90
2023-03-11T15:54:24.586Z,5.80
2023-03-11T15:56:51.545Z,5.70
2023-03-11T15:59:18.822Z,5.70
2023-03-11T16:01:47.220Z,5.60
2023-03-11T16:04:15.588Z,5.50
2023-03-11T16:06:42.899Z,5.40
2023-03-11T16:09:10.284Z,5.30
2023-03-11T16:11:37.603Z,5.30
2023-03-11T16:14:04.800Z,5.20
2023-03-11T16:16:31.803Z,5.20
2023-03-11T16:18:58.692Z,5.10
2023-03-11T16:21:30.617Z,5.00
2023-03-11T16:23:57.494Z,5.00
2023-03-11T16:26:24.431Z,4.90
2023-03-11T16:28:51.397Z,4.80
2023-03-11T16:31:18.328Z,4.80
2023-03-11T16:33:45.233Z,4.70
2023-03-11T16:36:12.356Z,4.70
2023-03-11T16:38:47.201Z,4.70
2023-03-11T16:41:14.740Z,4.60
2023-03-11T16:43:42.213Z,4.60
2023-03-11T16:46:10.035Z,4.60
2023-03-11T16:48:36.985Z,4.50
2023-03-11T16:51:03.946Z,4.50
2023-03-11T16:53:30.929Z,4.50
2023-03-11T16:55:57.930Z,4.40
2023-03-11T16:58:24.778Z,4.40
2023-03-11T17:00:52.029Z,4.40
2023-03-11T17:03:21.830Z,4.30
2023-03-11T17:05:49.049Z,4.30
2023-03-11T17:08:18.286Z,4.30
2023-03-11T17:10:46.055Z,4.20
2023-03-11T17:13:13.584Z,4.20
2023-03-11T17:15:44.283Z,4.10
2023-03-11T17:18:11.934Z,4.10
2023-03-11T17:20:39.876Z,4.10
2023-03-11T17:23:06.764Z,4.00
2023-03-11T17:25:33.625Z,4.00
2023-03-11T17:28:00.714Z,4.00
2023-03-11T17:30:36.846Z,4.00
2023-03-11T17:33:04.412Z,4.00
2023-03-11T17:35:31.405Z,4.00
2023-03-11T17:37:58.485Z,4.00
2023-03-11T17:40:27.013Z,3.90
2023-03-11T17:42:54.070Z,3.90
2023-03-11T17:45:21.002Z,4.00
2023-03-11T17:47:47.933Z,4.00
2023-03-11T17:50:15.028Z,4.00
2023-03-11T17:52:41.898Z,4.00
2023-03-11T17:55:09.456Z,4.00
2023-03-11T17:57:45.059Z,4.00
2023-03-11T18:00:14.869Z,4.00
2023-03-11T18:02:41.921Z,4.00
2023-03-11T18:05:09.472Z,4.00
2023-03-11T18:07:39.087Z,4.00
2023-03-11T18:10:07.066Z,4.00
2023-03-11T18:12:34.055Z,4.00
2023-03-11T18:15:06.155Z,4.00
2023-03-11T18:17:34.530Z,4.00
2023-03-11T18:20:01.508Z,4.00
2023-03-11T18:22:28.411Z,4.00
2023-03-11T18:24:55.323Z,4.00
2023-03-11T18:27:22.325Z,4.00
2023-03-11T18:29:49.222Z,4.00
2023-03-11T18:33:06.398Z,4.00
2023-03-11T18:35:33.341Z,4.00
2023-03-11T18:38:03.205Z,4.10
2023-03-11T18:40:30.233Z,4.10
2023-03-11T18:42:57.398Z,4.10
2023-03-11T18:45:24.323Z,4.10
2023-03-11T18:47:51.278Z,4.10
2023-03-11T18:50:18.269Z,4.10
2023-03-11T18:52:45.318Z,4.10
2023-03-11T18:55:12.325Z,4.10
2023-03-11T18:57:41.823Z,4.10
2023-03-11T19:00:09.258Z,4.10
2023-03-11T19:02:36.227Z,4.10
2023-03-11T19:05:04.496Z,4.00
2023-03-11T19:07:31.471Z,4.00
2023-03-11T19:09:58.403Z,4.00
2023-03-11T19:12:29.228Z,3.90
2023-03-11T19:14:56.127Z,3.90
2023-03-11T19:17:22.987Z,3.90
2023-03-11T19:19:49.960Z,3.80
2023-03-11T19:22:16.863Z,3.80
2023-03-11T19:24:43.714Z,3.80
2023-03-11T19:27:10.649Z,3.80
2023-03-11T19:29:37.537Z,3.80
2023-03-11T19:32:04.591Z,3.70
2023-03-11T19:34:31.627Z,3.70
2023-03-11T19:36:58.761Z,3.60
2023-03-11T19:39:25.696Z,3.60
2023-03-11T19:41:52.561Z,3.60
2023-03-11T19:44:19.463Z,3.60
2023-03-11T19:46:49.420Z,3.50
2023-03-11T19:49:16.543Z,3.50
2023-03-11T19:51:49.974Z,3.50
2023-03-11T19:54:17.764Z,3.50
2023-03-11T19:56:44.944Z,3.50
2023-03-11T19:59:12.543Z,3.50
2023-03-11T20:01:39.506Z,3.50
2023-03-11T20:04:06.442Z,3.50
2023-03-11T20:06:33.533Z,3.40
2023-03-11T20:09:00.830Z,3.40
2023-03-11T20:11:27.818Z,3.40
2023-03-11T20:13:54.741Z,3.40
2023-03-11T20:16:22.633Z,3.30
2023-03-11T20:18:50.528Z,3.30
2023-03-11T20:21:17.672Z,3.30
2023-03-11T20:23:44.667Z,3.30
2023-03-11T20:26:12.813Z,3.30
2023-03-11T20:28:40.011Z,3.30
2023-03-11T20:31:11.794Z,3.20
2023-03-11T20:33:38.956Z,3.20
2023-03-11T20:36:10.464Z,3.20
2023-03-11T20:38:37.496Z,3.20
2023-03-11T20:41:09.544Z,3.20
2023-03-11T20:43:37.304Z,3.10
2023-03-11T20:46:04.924Z,3.10
2023-03-11T20:48:32.050Z,3.10
2023-03-11T20:51:00.082Z,3.10
2023-03-11T20:53:27.112Z,3.10
2023-03-11T20:55:54.035Z,3.10
2023-03-11T20:58:20.889Z,3.10
2023-03-11T21:00:47.919Z,3.20
2023-03-11T21:03:14.866Z,3.20
2023-03-11T21:05:41.884Z,3.20
2023-03-11T21:08:08.958Z,3.20
2023-03-11T21:10:36.077Z,3.20
2023-03-11T21:13:03.200Z,3.10
2023-03-11T21:15:30.328Z,3.10
2023-03-11T21:17:57.288Z,3.10
2023-03-11T21:20:24.176Z,3.10
2023-03-11T21:22:51.101Z,3.10
2023-03-11T21:25:19.139Z,3.10
2023-03-11T21:27:46.107Z,3.10
2023-03-11T21:30:14.365Z,3.10
2023-03-11T21:32:41.530Z,3.10
2023-03-11T21:35:08.769Z,3.00
2023-03-11T21:37:35.918Z,3.00
2023-03-11T21:40:02.950Z,3.00
2023-03-11T21:42:30.148Z,2.90
2023-03-11T21:44:57.383Z,2.90
2023-03-11T21:47:24.419Z,2.90
2023-03-11T21:49:51.466Z,2.90
2023-03-11T21:52:18.483Z,2.90
2023-03-11T21:54:47.222Z,2.80
2023-03-11T21:57:14.188Z,2.90
2023-03-11T21:59:41.160Z,2.80
2023-03-11T22:02:11.094Z,2.80
2023-03-11T22:04:38.150Z,2.80
2023-03-11T22:07:05.070Z,2.80
2023-03-11T22:09:31.991Z,2.80
2023-03-11T22:11:59.009Z,2.70
2023-03-11T22:14:26.012Z,2.70
2023-03-11T22:16:53.136Z,2.70
2023-03-11T22:19:20.179Z,2.70
2023-03-11T22:21:48.459Z,2.70
2023-03-11T22:24:15.819Z,2.70
2023-03-11T22:26:42.653Z,2.70
2023-03-11T22:29:11.061Z,2.70
2023-03-11T22:31:40.021Z,2.70
2023-03-11T22:34:06.909Z,2.70
2023-03-11T22:36:33.778Z,2.70
2023-03-11T22:39:02.796Z,2.70
2023-03-11T22:41:30.058Z,2.70
2023-03-11T22:43:56.924Z,2.70
2023-03-11T22:46:23.855Z,2.70
2023-03-11T22:48:50.857Z,2.70
2023-03-11T22:51:17.801Z,2.70
2023-03-11T22:53:44.991Z,2.70
2023-03-11T22:56:13.401Z,2.70
2023-03-11T22:58:40.307Z,2.80
2023-03-11T23:01:07.361Z,2.80
2023-03-11T23:03:34.662Z,2.80
2023-03-11T23:06:02.440Z,2.80
2023-03-11T23:08:29.564Z,2.80
2023-03-11T23:10:56.582Z,2.80
2023-03-11T23:13:23.513Z,2.80
2023-03-11T23:15:50.420Z,2.90
2023-03-11T23:18:18.560Z,2.80
2023-03-11T23:20:45.676Z,2.90
2023-03-11T23:23:12.915Z,2.90
2023-03-11T23:25:40.681Z,2.90
2023-03-11T23:28:07.818Z,2.90
2023-03-11T23:30:34.876Z,2.90
2023-03-11T23:33:03.031Z,2.90
2023-03-11T23:35:30.477Z,2.90
2023-03-11T23:37:57.469Z,2.90
2023-03-11T23:40:24.482Z,2.90
2023-03-11T23:42:51.435Z,2.90
2023-03-11T23:45:18.373Z,3.00
2023-03-11T23:47:45.304Z,3.00
2023-03-11T23:50:12.482Z,3.00
2023-03-11T23:52:39.403Z,3.00
2023-03-11T23:55:06.703Z,3.00
2023-03-11T23:57:36.747Z,3.00
